Papa John — V7TY7 — position and weather

sailwx.info

Track history (hours):
 
Tides and Currents Weather Stations Pressure Air Temp Water Temp Dewpoint Dewpoint Depression Visibility Wind Speed Wind Dir Waves Ship Positions

Papa John

Last reported at 2017-Aug-18 09:00 UTC. Time now 2017-Aug-18 09:02 UTC.
Position N 31°10' E 122°11'.

Length 190 m; draft 10.2 m.

Type: Ship. MMSI: 538003908.

Date/timePositionNaut miles runAvg speedWind from/ knotsBaromVisibWave heightAir tempDewpointWater temp
2017-Aug-18 09:00N 31°10' E 122°11'611.6
2017-Aug-18 08:31N 31°07' E 122°17'510.6
2017-Aug-18 08:00N 31°06' E 122°23'510.2
2017-Aug-18 07:29N 31°07' E 122°29'4 8.9
2017-Aug-18 07:00N 31°07' E 122°34'3 4.1
2017-Aug-18 06:11N 31°07' E 122°38'2 4.1
2017-Aug-18 05:44N 31°07' E 122°40'2 4.7
2017-Aug-18 05:19N 31°07' E 122°42'3911.4
2017-Aug-18 01:55N 31°45' E 122°48'3511.8
2017-Aug-17 22:56N 32°20' E 122°53'21410.0
2017-Aug-17 01:30N 34°58' E 119°60'511.2
2017-Aug-17 01:00N 34°56' E 119°54'611.3
2017-Aug-17 00:28N 34°52' E 119°48'1410.0
2017-Aug-16 23:06N 34°45' E 119°33'8 0.7
2017-Aug-16 10:48N 34°45' E 119°23'0 0.0
2017-Aug-16 10:24N 34°45' E 119°23'0 0.0
2017-Aug-16 10:00N 34°45' E 119°23'0 0.0
2017-Aug-16 09:30N 34°45' E 119°23'0 0.0
2017-Aug-16 08:54N 34°45' E 119°23'0 0.0
2017-Aug-16 08:30N 34°45' E 119°23'0 0.1
2017-Aug-16 07:54N 34°45' E 119°23'0 0.1
2017-Aug-16 07:24N 34°45' E 119°23'0 0.0
2017-Aug-16 03:12N 34°45' E 119°23'0 0.0
2017-Aug-15 23:00N 34°45' E 119°23'34 1.1
2017-Aug-14 15:49N 35°14' E 119°45'410.7
2017-Aug-14 15:27N 35°16' E 119°42'4 8.4
2017-Aug-14 15:00N 35°18' E 119°38'510.0
2017-Aug-14 14:30N 35°21' E 119°33'1 2.0
2017-Aug-14 14:00N 35°22' E 119°32'0 0.0
2017-Aug-14 13:27N 35°22' E 119°32'0 0.0
2017-Aug-14 12:51N 35°22' E 119°32'0 0.0
2017-Aug-14 12:27N 35°22' E 119°32'0 0.0
2017-Aug-14 11:57N 35°22' E 119°32'0 0.0
2017-Aug-14 11:15N 35°22' E 119°32'0 0.0
2017-Aug-14 10:57N 35°22' E 119°32'0 0.0
2017-Aug-14 10:27N 35°22' E 119°32'0 0.0
2017-Aug-14 09:51N 35°22' E 119°32'0 0.0
2017-Aug-14 09:27N 35°22' E 119°32'0 0.0
2017-Aug-14 08:57N 35°22' E 119°32'0 0.0
2017-Aug-14 08:21N 35°22' E 119°32'0 0.0
2017-Aug-14 07:57N 35°22' E 119°32'0 0.0
2017-Aug-14 07:21N 35°22' E 119°32'0 0.0
2017-Aug-14 06:51N 35°22' E 119°32'0 0.0
2017-Aug-14 06:15N 35°22' E 119°32'0 0.0
2017-Aug-14 05:45N 35°22' E 119°32'0 0.0
2017-Aug-14 05:27N 35°22' E 119°32'0 0.0
2017-Aug-14 04:57N 35°22' E 119°32'0 0.0
2017-Aug-14 04:27N 35°22' E 119°32'0 0.0
2017-Aug-14 02:51N 35°22' E 119°32'0 0.0
2017-Aug-14 02:27N 35°22' E 119°32'0 0.0
2017-Aug-14 01:45N 35°22' E 119°32'0 0.0
2017-Aug-14 01:27N 35°22' E 119°32'0 0.0
2017-Aug-14 00:57N 35°22' E 119°32'0 0.0
2017-Aug-14 00:27N 35°22' E 119°32'0 0.0
2017-Aug-13 23:51N 35°22' E 119°32'0 0.0
2017-Aug-13 23:21N 35°22' E 119°32'0 0.0
2017-Aug-13 22:57N 35°22' E 119°32'0 0.0
2017-Aug-13 22:27N 35°22' E 119°32'0 0.0
2017-Aug-13 21:57N 35°22' E 119°32'0 0.0
2017-Aug-13 21:15N 35°22' E 119°32'0 0.0
2017-Aug-13 20:57N 35°22' E 119°32'0 0.0
2017-Aug-13 20:21N 35°22' E 119°32'0 0.0
2017-Aug-13 19:45N 35°22' E 119°32'0 0.0
2017-Aug-13 19:15N 35°22' E 119°32'0 0.0
2017-Aug-13 18:57N 35°22' E 119°32'0 0.0
2017-Aug-13 18:03N 35°22' E 119°32'0 0.1
2017-Aug-13 17:57N 35°22' E 119°32'0 0.0
2017-Aug-13 17:21N 35°22' E 119°32'0 0.0
2017-Aug-13 16:09N 35°22' E 119°32'0 0.0
2017-Aug-13 15:09N 35°22' E 119°32'0 0.0
2017-Aug-13 14:39N 35°22' E 119°32'0 0.0
2017-Aug-13 14:21N 35°22' E 119°32'0 0.0
2017-Aug-13 13:51N 35°22' E 119°32'0 0.0
2017-Aug-12 11:09N 35°22' E 119°32'0 0.0
2017-Aug-12 10:57N 35°22' E 119°32'0 0.0
2017-Aug-12 10:27N 35°22' E 119°32'0 0.0
2017-Aug-12 09:51N 35°22' E 119°32'0 0.0
2017-Aug-12 09:15N 35°22' E 119°32'0 0.0
2017-Aug-12 08:51N 35°22' E 119°32'0 0.0
2017-Aug-12 08:27N 35°22' E 119°32'0 0.0
2017-Aug-12 07:57N 35°22' E 119°32'0 0.0
2017-Aug-12 07:27N 35°22' E 119°32'0 0.0
2017-Aug-12 06:57N 35°22' E 119°32'0 0.0
2017-Aug-12 06:27N 35°22' E 119°32'0 0.0
2017-Aug-12 05:57N 35°22' E 119°32'0 0.0
2017-Aug-12 05:21N 35°22' E 119°32'0 0.0
2017-Aug-12 04:10N 35°22' E 119°32'0 0.0
2017-Aug-12 04:00N 35°22' E 119°32'2 3.4
2017-Aug-12 03:30N 35°20' E 119°33'5 9.1
2017-Aug-12 03:00N 35°18' E 119°38'3 6.4
2017-Aug-12 02:30N 35°19' E 119°42'0 0.1
2017-Aug-12 02:00N 35°19' E 119°42'0 0.0
2017-Aug-12 01:24N 35°19' E 119°42'0 0.0
2017-Aug-12 00:54N 35°19' E 119°42'0 0.0
2017-Aug-12 00:30N 35°19' E 119°42'0 0.1
2017-Aug-12 00:00N 35°19' E 119°42'0 0.0
2017-Aug-11 23:24N 35°19' E 119°42'0 0.0
2017-Aug-11 23:00N 35°19' E 119°42'0 0.0
2017-Aug-11 22:18N 35°19' E 119°42'0 0.2
2017-Aug-11 22:00N 35°19' E 119°42'0 0.1
2017-Aug-11 20:36N 35°19' E 119°42'0 0.2
2017-Aug-11 20:12N 35°19' E 119°42'0 0.2
2017-Aug-11 19:54N 35°19' E 119°42'0 0.0
2017-Aug-11 19:30N 35°19' E 119°42'0 0.0
2017-Aug-11 19:00N 35°19' E 119°42'0 0.0
2017-Aug-11 18:30N 35°19' E 119°42'0 0.0
2017-Aug-11 17:54N 35°19' E 119°42'0 0.1
2017-Aug-11 17:24N 35°19' E 119°42'0 0.0
2017-Aug-11 17:00N 35°19' E 119°42'0 0.0
2017-Aug-11 16:30N 35°19' E 119°42'0 0.0
2017-Aug-11 16:00N 35°19' E 119°42'0 0.0
2017-Aug-11 15:30N 35°19' E 119°42'0 0.0
2017-Aug-11 15:00N 35°19' E 119°42'0 0.1
2017-Aug-11 14:24N 35°19' E 119°42'0 0.2
2017-Aug-11 13:24N 35°19' E 119°42'0 0.1
2017-Aug-11 12:59N 35°19' E 119°42'0 0.0
2017-Aug-11 12:30N 35°19' E 119°42'0 0.0
2017-Aug-11 12:00N 35°19' E 119°42'0 0.0
2017-Aug-11 11:30N 35°19' E 119°42'0 0.0
2017-Aug-11 11:00N 35°19' E 119°42'0 0.0
2017-Aug-11 10:28N 35°19' E 119°42'0 0.0
2017-Aug-11 09:58N 35°19' E 119°42'0 0.1
2017-Aug-11 09:22N 35°19' E 119°42'0 0.1
2017-Aug-11 08:58N 35°19' E 119°42'0 0.1
2017-Aug-11 08:28N 35°19' E 119°42'0 0.2
2017-Aug-11 07:52N 35°19' E 119°42'0 0.0
2017-Aug-11 07:28N 35°19' E 119°42'0 0.1
2017-Aug-11 06:52N 35°19' E 119°42'0 0.0
2017-Aug-11 06:28N 35°19' E 119°42'0 0.0
2017-Aug-11 05:58N 35°19' E 119°42'0 0.0
2017-Aug-11 05:16N 35°19' E 119°42'0 0.0
2017-Aug-11 04:58N 35°19' E 119°42'0 0.0
2017-Aug-11 04:28N 35°19' E 119°42'0 0.0
2017-Aug-11 03:58N 35°19' E 119°42'0 0.1
2017-Aug-11 03:16N 35°19' E 119°42'0 0.0
2017-Aug-11 03:00N 35°19' E 119°42'1 2.4
2017-Aug-11 02:30N 35°19' E 119°44'5 9.3
2017-Aug-11 02:00N 35°19' E 119°50'611.4
2017-Aug-11 01:30N 35°19' E 119°56'16212.1
2017-Aug-10 12:07N 36°50' E 122°41'210.6
2017-Aug-10 11:54N 36°52' E 122°43'222 4.6
2017-Aug-08 12:15N 39°10' E 119°03'3 8.5
2017-Aug-08 11:50N 39°08' E 119°06'6 7.4
2017-Aug-08 11:00N 39°02' E 119°09'3 6.9
2017-Aug-08 10:30N 38°59' E 119°07'611.9
2017-Aug-08 10:00N 38°56' E 119°00'912.5
2017-Aug-08 09:18N 38°50' E 118°52'  
Track history (hours):
 
Tides and Currents Weather Stations Pressure Air Temp Water Temp Dewpoint Dewpoint Depression Visibility Wind Speed Wind Dir Waves Ship Positions

Papa John

Last reported at 2017-Aug-18 09:00 UTC. Time now 2017-Aug-18 09:02 UTC.
Position N 31°10' E 122°11'.

Length 190 m; draft 10.2 m.

Type: Ship. MMSI: 538003908.

Date/timePositionNaut miles runAvg speedWind from/ knotsBaromVisibWave heightAir tempDewpointWater temp
2017-Aug-18 09:00N 31°10' E 122°11'611.6
2017-Aug-18 08:31N 31°07' E 122°17'510.6
2017-Aug-18 08:00N 31°06' E 122°23'510.2
2017-Aug-18 07:29N 31°07' E 122°29'4 8.9
2017-Aug-18 07:00N 31°07' E 122°34'3 4.1
2017-Aug-18 06:11N 31°07' E 122°38'2 4.1
2017-Aug-18 05:44N 31°07' E 122°40'2 4.7
2017-Aug-18 05:19N 31°07' E 122°42'3911.4
2017-Aug-18 01:55N 31°45' E 122°48'3511.8
2017-Aug-17 22:56N 32°20' E 122°53'21410.0
2017-Aug-17 01:30N 34°58' E 119°60'511.2
2017-Aug-17 01:00N 34°56' E 119°54'611.3
2017-Aug-17 00:28N 34°52' E 119°48'1410.0
2017-Aug-16 23:06N 34°45' E 119°33'8 0.7
2017-Aug-16 10:48N 34°45' E 119°23'0 0.0
2017-Aug-16 10:24N 34°45' E 119°23'0 0.0
2017-Aug-16 10:00N 34°45' E 119°23'0 0.0
2017-Aug-16 09:30N 34°45' E 119°23'0 0.0
2017-Aug-16 08:54N 34°45' E 119°23'0 0.0
2017-Aug-16 08:30N 34°45' E 119°23'0 0.1
2017-Aug-16 07:54N 34°45' E 119°23'0 0.1
2017-Aug-16 07:24N 34°45' E 119°23'0 0.0
2017-Aug-16 03:12N 34°45' E 119°23'0 0.0
2017-Aug-15 23:00N 34°45' E 119°23'34 1.1
2017-Aug-14 15:49N 35°14' E 119°45'410.7
2017-Aug-14 15:27N 35°16' E 119°42'4 8.4
2017-Aug-14 15:00N 35°18' E 119°38'510.0
2017-Aug-14 14:30N 35°21' E 119°33'1 2.0
2017-Aug-14 14:00N 35°22' E 119°32'0 0.0
2017-Aug-14 13:27N 35°22' E 119°32'0 0.0
2017-Aug-14 12:51N 35°22' E 119°32'0 0.0
2017-Aug-14 12:27N 35°22' E 119°32'0 0.0
2017-Aug-14 11:57N 35°22' E 119°32'0 0.0
2017-Aug-14 11:15N 35°22' E 119°32'0 0.0
2017-Aug-14 10:57N 35°22' E 119°32'0 0.0
2017-Aug-14 10:27N 35°22' E 119°32'0 0.0
2017-Aug-14 09:51N 35°22' E 119°32'0 0.0
2017-Aug-14 09:27N 35°22' E 119°32'0 0.0
2017-Aug-14 08:57N 35°22' E 119°32'0 0.0
2017-Aug-14 08:21N 35°22' E 119°32'0 0.0
2017-Aug-14 07:57N 35°22' E 119°32'0 0.0
2017-Aug-14 07:21N 35°22' E 119°32'0 0.0
2017-Aug-14 06:51N 35°22' E 119°32'0 0.0
2017-Aug-14 06:15N 35°22' E 119°32'0 0.0
2017-Aug-14 05:45N 35°22' E 119°32'0 0.0
2017-Aug-14 05:27N 35°22' E 119°32'0 0.0
2017-Aug-14 04:57N 35°22' E 119°32'0 0.0
2017-Aug-14 04:27N 35°22' E 119°32'0 0.0
2017-Aug-14 02:51N 35°22' E 119°32'0 0.0
2017-Aug-14 02:27N 35°22' E 119°32'0 0.0
2017-Aug-14 01:45N 35°22' E 119°32'0 0.0
2017-Aug-14 01:27N 35°22' E 119°32'0 0.0
2017-Aug-14 00:57N 35°22' E 119°32'0 0.0
2017-Aug-14 00:27N 35°22' E 119°32'0 0.0
2017-Aug-13 23:51N 35°22' E 119°32'0 0.0
2017-Aug-13 23:21N 35°22' E 119°32'0 0.0
2017-Aug-13 22:57N 35°22' E 119°32'0 0.0
2017-Aug-13 22:27N 35°22' E 119°32'0 0.0
2017-Aug-13 21:57N 35°22' E 119°32'0 0.0
2017-Aug-13 21:15N 35°22' E 119°32'0 0.0
2017-Aug-13 20:57N 35°22' E 119°32'0 0.0
2017-Aug-13 20:21N 35°22' E 119°32'0 0.0
2017-Aug-13 19:45N 35°22' E 119°32'0 0.0
2017-Aug-13 19:15N 35°22' E 119°32'0 0.0
2017-Aug-13 18:57N 35°22' E 119°32'0 0.0
2017-Aug-13 18:03N 35°22' E 119°32'0 0.1
2017-Aug-13 17:57N 35°22' E 119°32'0 0.0
2017-Aug-13 17:21N 35°22' E 119°32'0 0.0
2017-Aug-13 16:09N 35°22' E 119°32'0 0.0
2017-Aug-13 15:09N 35°22' E 119°32'0 0.0
2017-Aug-13 14:39N 35°22' E 119°32'0 0.0
2017-Aug-13 14:21N 35°22' E 119°32'0 0.0
2017-Aug-13 13:51N 35°22' E 119°32'0 0.0
2017-Aug-12 11:09N 35°22' E 119°32'0 0.0
2017-Aug-12 10:57N 35°22' E 119°32'0 0.0
2017-Aug-12 10:27N 35°22' E 119°32'0 0.0
2017-Aug-12 09:51N 35°22' E 119°32'0 0.0
2017-Aug-12 09:15N 35°22' E 119°32'0 0.0
2017-Aug-12 08:51N 35°22' E 119°32'0 0.0
2017-Aug-12 08:27N 35°22' E 119°32'0 0.0
2017-Aug-12 07:57N 35°22' E 119°32'0 0.0
2017-Aug-12 07:27N 35°22' E 119°32'0 0.0
2017-Aug-12 06:57N 35°22' E 119°32'0 0.0
2017-Aug-12 06:27N 35°22' E 119°32'0 0.0
2017-Aug-12 05:57N 35°22' E 119°32'0 0.0
2017-Aug-12 05:21N 35°22' E 119°32'0 0.0
2017-Aug-12 04:10N 35°22' E 119°32'0 0.0
2017-Aug-12 04:00N 35°22' E 119°32'2 3.4
2017-Aug-12 03:30N 35°20' E 119°33'5 9.1
2017-Aug-12 03:00N 35°18' E 119°38'3 6.4
2017-Aug-12 02:30N 35°19' E 119°42'0 0.1
2017-Aug-12 02:00N 35°19' E 119°42'0 0.0
2017-Aug-12 01:24N 35°19' E 119°42'0 0.0
2017-Aug-12 00:54N 35°19' E 119°42'0 0.0
2017-Aug-12 00:30N 35°19' E 119°42'0 0.1
2017-Aug-12 00:00N 35°19' E 119°42'0 0.0
2017-Aug-11 23:24N 35°19' E 119°42'0 0.0
2017-Aug-11 23:00N 35°19' E 119°42'0 0.0
2017-Aug-11 22:18N 35°19' E 119°42'0 0.2
2017-Aug-11 22:00N 35°19' E 119°42'0 0.1
2017-Aug-11 20:36N 35°19' E 119°42'0 0.2
2017-Aug-11 20:12N 35°19' E 119°42'0 0.2
2017-Aug-11 19:54N 35°19' E 119°42'0 0.0
2017-Aug-11 19:30N 35°19' E 119°42'0 0.0
2017-Aug-11 19:00N 35°19' E 119°42'0 0.0
2017-Aug-11 18:30N 35°19' E 119°42'0 0.0
2017-Aug-11 17:54N 35°19' E 119°42'0 0.1
2017-Aug-11 17:24N 35°19' E 119°42'0 0.0
2017-Aug-11 17:00N 35°19' E 119°42'0 0.0
2017-Aug-11 16:30N 35°19' E 119°42'0 0.0
2017-Aug-11 16:00N 35°19' E 119°42'0 0.0
2017-Aug-11 15:30N 35°19' E 119°42'0 0.0
2017-Aug-11 15:00N 35°19' E 119°42'0 0.1
2017-Aug-11 14:24N 35°19' E 119°42'0 0.2
2017-Aug-11 13:24N 35°19' E 119°42'0 0.1
2017-Aug-11 12:59N 35°19' E 119°42'0 0.0
2017-Aug-11 12:30N 35°19' E 119°42'0 0.0
2017-Aug-11 12:00N 35°19' E 119°42'0 0.0
2017-Aug-11 11:30N 35°19' E 119°42'0 0.0
2017-Aug-11 11:00N 35°19' E 119°42'0 0.0
2017-Aug-11 10:28N 35°19' E 119°42'0 0.0
2017-Aug-11 09:58N 35°19' E 119°42'0 0.1
2017-Aug-11 09:22N 35°19' E 119°42'0 0.1
2017-Aug-11 08:58N 35°19' E 119°42'0 0.1
2017-Aug-11 08:28N 35°19' E 119°42'0 0.2
2017-Aug-11 07:52N 35°19' E 119°42'0 0.0
2017-Aug-11 07:28N 35°19' E 119°42'0 0.1
2017-Aug-11 06:52N 35°19' E 119°42'0 0.0
2017-Aug-11 06:28N 35°19' E 119°42'0 0.0
2017-Aug-11 05:58N 35°19' E 119°42'0 0.0
2017-Aug-11 05:16N 35°19' E 119°42'0 0.0
2017-Aug-11 04:58N 35°19' E 119°42'0 0.0
2017-Aug-11 04:28N 35°19' E 119°42'0 0.0
2017-Aug-11 03:58N 35°19' E 119°42'0 0.1
2017-Aug-11 03:16N 35°19' E 119°42'0 0.0
2017-Aug-11 03:00N 35°19' E 119°42'1 2.4
2017-Aug-11 02:30N 35°19' E 119°44'5 9.3
2017-Aug-11 02:00N 35°19' E 119°50'611.4
2017-Aug-11 01:30N 35°19' E 119°56'16212.1
2017-Aug-10 12:07N 36°50' E 122°41'210.6
2017-Aug-10 11:54N 36°52' E 122°43'222 4.6
2017-Aug-08 12:15N 39°10' E 119°03'3 8.5
2017-Aug-08 11:50N 39°08' E 119°06'6 7.4
2017-Aug-08 11:00N 39°02' E 119°09'3 6.9
2017-Aug-08 10:30N 38°59' E 119°07'611.9
2017-Aug-08 10:00N 38°56' E 119°00'912.5
2017-Aug-08 09:18N 38°50' E 118°52'  

Dump ship's entire track history